Main page
METAR-TAF:

METAR-TAF

Airports :

Tindouf Airport

Tindouf, Algeria

latitude: 27-40N, longitude: 008-08W, elevation: 431 m

Current weather observation

The report was made 1 hour and 5 minutes ago, at 14:00 UTC
Wind 12 kt from the South/Southwest
Temperature 25°C
Humidity 14%
Pressure 1022 hPa
Visibility: 9000 m
Scattered clouds at a height of 4600 ft
Scattered clouds at a height of 10000 ft

METAR: DAOF 231400Z 20012KT 9000 SCT046 SCT100 25/M04 Q1022

Time: 16:05 (15:05 UTC)

Forecast

The report was made 1 hour and 5 minutes ago, at 14:00 UTC
Forecast valid from 23 at 15 UTC to 23 at 24 UTC
Wind 14 kt from the South/Southwest
Visibility: 8000 m
Scattered clouds at a height of 4600 ft
Broken clouds at a height of 10000 ft

TAF: DAOF 231400Z 2315/2324 20014KT 8000 SCT046 BKN100

Weather observations and forecasts of more than 4000 airports (METAR and TAF reports).

The available stations are represented by yellow and red dots on the map.

Hover mouse over dot to see the name of the station.

Then click to see weather observations and forecasts.

To change the map : click on the green buttons with a black cross to zoom in, on the green button with a dash to zoom out, or on the green arrows for adjacent maps.


METAR-TAF: